Time;durP1;ratioP1;P1;durP2;ratioP2;P2;SDS_P1;SDS_P2;PMS_P1;PMS_P2;Temp;Humidity;BMP_temperature;BMP_pressure;BME280_temperature;BME280_humidity;BME280_pressure;Samples;Min_cycle;Max_cycle;Signal;HPM_P1;HPM_P2
2022/02/09 00:04:19;;;;;;;8.00;4.60;;;;;;;-1.32;100.00;98487.42;1668537;85;21029;-70
2022/02/09 00:06:49;;;;;;;7.50;4.30;;;;;;;-1.32;100.00;98490.08;1648570;85;21143;-70
2022/02/09 00:09:11;;;;;;;8.40;4.40;;;;;;;-1.34;100.00;98489.38;1651961;86;21069;-70
2022/02/09 00:14:18;;;;;;;11.43;4.97;;;;;;;-1.33;100.00;98501.64;1659755;86;21091;-70
2022/02/09 00:19:13;;;;;;;9.57;4.93;;;;;;;-1.37;100.00;98496.27;1635291;86;21143;-70
2022/02/09 00:21:55;;;;;;;8.33;4.60;;;;;;;-1.38;100.00;98491.92;1622714;86;21179;-70
2022/02/09 00:27:05;;;;;;;13.93;4.90;;;;;;;-1.41;100.00;98505.47;1619842;87;21641;-69
2022/02/09 00:29:36;;;;;;;12.70;5.40;;;;;;;-1.43;100.00;98497.64;1631240;86;21529;-70
2022/02/09 00:34:49;;;;;;;12.00;4.80;;;;;;;-1.46;100.00;98512.97;1650818;86;21045;-69
2022/02/09 00:42:23;;;;;;;10.80;5.03;;;;;;;-1.54;100.00;98528.19;1616579;87;21046;-69
2022/02/09 00:45:14;;;;;;;10.32;4.75;;;;;;;-1.57;100.00;98528.48;1608590;88;21127;-70
2022/02/09 01:51:00;;;;;;;11.37;5.33;;;;;;;-1.66;100.00;98575.66;1700624;84;21073;-70
2022/02/09 01:55:27;;;;;;;12.83;6.07;;;;;;;-1.67;100.00;98584.06;1629610;86;21152;-70
2022/02/09 01:57:53;;;;;;;11.33;5.33;;;;;;;-1.66;100.00;98576.48;1619516;88;21047;-69
2022/02/09 02:00:20;;;;;;;9.87;4.80;;;;;;;-1.67;100.00;98572.14;1649118;86;21000;-70
2022/02/09 02:02:47;;;;;;;8.77;5.10;;;;;;;-1.67;100.00;98575.28;1631467;86;21547;-69
2022/02/09 02:05:15;;;;;;;10.60;5.80;;;;;;;-1.67;100.00;98573.46;1646584;86;21035;-69
2022/02/09 02:07:52;;;;;;;13.27;7.00;;;;;;;-1.66;100.00;98576.98;1644899;86;21519;-71
2022/02/09 02:10:28;;;;;;;30.50;19.50;;;;;;;-1.66;100.00;98574.33;1612516;86;21181;-70
2022/02/09 02:13:11;;;;;;;60.20;40.50;;;;;;;-1.65;100.00;98578.64;1652396;86;21050;-70
2022/02/09 02:16:05;;;;;;;24.13;15.23;;;;;;;-1.65;100.00;98575.50;1632978;86;21639;-70
2022/02/09 02:18:09;;;;;;;20.90;13.20;;;;;;;-1.65;100.00;98576.82;1623200;87;21059;-69
2022/02/09 02:26:13;;;;;;;20.53;14.20;;;;;;;-1.74;100.00;98572.30;1648583;86;21120;-70
2022/02/09 02:39:10;;;;;;;19.93;16.03;;;;;;;-1.97;100.00;98572.41;1631886;86;21074;-70
2022/02/09 02:57:58;;;;;;;35.23;24.53;;;;;;;-2.06;100.00;98592.21;1658913;85;21022;-70
2022/02/09 03:13:38;;;;;;;21.53;12.43;;;;;;;-2.15;100.00;98606.55;1688925;83;21013;-69
2022/02/09 03:21:17;;;;;;;21.43;13.17;;;;;;;-2.16;100.00;98601.38;1687522;84;21178;-69
2022/02/09 03:23:44;;;;;;;14.13;7.33;;;;;;;-2.19;100.00;98599.01;1690552;84;21072;-70
2022/02/09 03:48:02;;;;;;;13.63;5.87;;;;;;;-2.60;100.00;98604.03;1730466;81;21072;-70
2022/02/09 03:53:03;;;;;;;18.10;7.00;;;;;;;-2.76;100.00;98612.81;1725948;82;21173;-70
2022/02/09 03:55:39;;;;;;;17.03;8.40;;;;;;;-2.82;100.00;98615.96;1719885;82;21029;-70
2022/02/09 03:58:00;;;;;;;59.30;41.33;;;;;;;-2.89;100.00;98617.75;1721613;82;21585;-72
2022/02/09 04:00:30;;;;;;;80.63;53.30;;;;;;;-2.92;100.00;98618.02;1725466;82;21059;-69
2022/02/09 04:02:59;;;;;;;152.33;96.73;;;;;;;-2.96;100.00;98630.27;1726119;83;21049;-70
2022/02/09 04:05:26;;;;;;;94.20;62.23;;;;;;;-3.03;100.00;98629.89;1704159;83;20988;-71
2022/02/09 04:10:32;;;;;;;49.70;31.60;;;;;;;-3.18;100.00;98631.94;1662770;84;21060;-70
2022/02/09 04:15:57;;;;;;;27.17;14.97;;;;;;;-3.33;100.00;98642.36;1689711;83;21054;-71
2022/02/09 04:37:58;;;;;;;18.10;10.00;;;;;;;-3.75;100.00;98665.77;1622454;86;20115;-70
2022/02/09 04:40:26;;;;;;;14.07;7.33;;;;;;;-3.78;100.00;98660.74;1646085;86;21074;-70
2022/02/09 04:50:40;;;;;;;13.60;7.00;;;;;;;-3.87;100.00;98661.78;1586092;90;21045;-70
2022/02/09 04:53:21;;;;;;;14.43;7.10;;;;;;;-3.89;100.00;98661.05;1564509;90;21148;-70
2022/02/09 04:58:27;;;;;;;15.08;6.67;;;;;;;-3.90;100.00;98667.28;1594200;88;21854;-70
2022/02/09 05:28:05;;;;;;;55.53;23.90;;;;;;;-3.74;100.00;98706.61;1681207;83;21073;-75
2022/02/09 05:30:32;;;;;;;50.20;22.10;;;;;;;-3.68;100.00;98700.05;1662288;83;21080;-71
2022/02/09 05:32:59;;;;;;;45.60;21.03;;;;;;;-3.62;100.00;98699.09;1680535;83;21085;-71
2022/02/09 05:35:26;;;;;;;63.80;29.53;;;;;;;-3.55;100.00;98707.91;1661070;85;21623;-69
2022/02/09 05:37:55;;;;;;;55.67;25.43;;;;;;;-3.54;100.00;98715.72;1643416;84;20997;-70
2022/02/09 05:40:23;;;;;;;54.70;24.03;;;;;;;-3.51;100.00;98720.76;1734930;79;21569;-71
2022/02/09 05:42:50;;;;;;;58.93;25.83;;;;;;;-3.44;100.00;98716.70;1771253;80;21486;-70
2022/02/09 05:45:18;;;;;;;76.67;35.43;;;;;;;-3.35;100.00;98714.33;1789188;79;21147;-71
2022/02/09 05:53:16;;;;;;;80.87;42.63;;;;;;;-3.06;100.00;98697.59;1720028;83;21026;-71
2022/02/09 05:56:06;;;;;;;77.97;42.53;;;;;;;-2.97;100.00;98705.30;1689478;83;21547;-71
2022/02/09 06:00:57;;;;;;;47.17;25.08;;;;;;;-2.81;100.00;98707.61;1694270;83;21558;-71
2022/02/09 06:03:25;;;;;;;44.00;22.50;;;;;;;-2.70;100.00;98711.57;1691745;84;21066;-71
2022/02/09 06:05:52;;;;;;;39.37;18.33;;;;;;;-2.60;100.00;98719.62;1712198;82;21472;-71
2022/02/09 06:08:22;;;;;;;38.83;18.10;;;;;;;-2.56;100.00;98724.56;1723254;82;21124;-74
2022/02/09 06:10:50;;;;;;;36.43;15.37;;;;;;;-2.51;100.00;98702.55;1716522;82;21017;-70
2022/02/09 06:13:43;;;;;;;31.27;14.63;;;;;;;-2.45;100.00;98700.39;1702445;83;21458;-73
2022/02/09 06:21:24;;;;;;;44.97;21.47;;;;;;;-2.28;100.00;98701.22;1717957;83;21026;-72
2022/02/09 06:23:52;;;;;;;33.93;15.57;;;;;;;-2.21;100.00;98705.05;1696363;83;21842;-73
2022/02/09 06:26:19;;;;;;;30.20;14.27;;;;;;;-2.18;100.00;98706.14;1693501;83;21135;-71
2022/02/09 06:28:47;;;;;;;26.53;12.03;;;;;;;-2.14;100.00;98702.27;1659704;84;21086;-71
2022/02/09 06:31:15;;;;;;;21.40;10.63;;;;;;;-2.08;100.00;98708.88;1766992;80;21636;-72
2022/02/09 06:33:42;;;;;;;25.30;11.77;;;;;;;-2.03;100.00;98712.00;1664751;83;21036;-71
2022/02/09 06:36:10;;;;;;;53.10;26.70;;;;;;;-1.97;100.00;98710.66;1743264;82;21015;-74
2022/02/09 06:38:40;;;;;;;57.03;28.03;;;;;;;-1.92;100.00;98714.61;1682158;84;21068;-73
2022/02/09 06:41:07;;;;;;;51.53;27.07;;;;;;;-1.80;100.00;98710.13;1740130;81;21509;-72
2022/02/09 06:43:35;;;;;;;57.60;30.63;;;;;;;-1.70;100.00;98701.42;1754327;81;21036;-74
2022/02/09 06:46:03;;;;;;;78.70;45.27;;;;;;;-1.67;100.00;98707.31;1758226;80;20978;-72
2022/02/09 06:48:31;;;;;;;52.57;27.07;;;;;;;-1.61;100.00;98702.84;1783689;80;20967;-72
2022/02/09 06:51:05;;;;;;;48.17;26.10;;;;;;;-1.55;100.00;98701.00;1783318;80;21576;-71
2022/02/09 06:53:32;;;;;;;40.87;20.37;;;;;;;-1.50;100.00;98704.61;1778138;80;21049;-71
2022/02/09 06:55:58;;;;;;;42.43;20.97;;;;;;;-1.46;100.00;98705.20;1753188;80;21091;-71
2022/02/09 07:01:03;;;;;;;43.00;19.90;;;;;;;-1.32;100.00;98695.59;1760018;80;21534;-71
2022/02/09 07:03:32;;;;;;;46.33;21.20;;;;;;;-1.18;100.00;98697.93;1781377;80;21546;-72
2022/02/09 07:06:00;;;;;;;41.67;19.43;;;;;;;-1.06;100.00;98687.23;1780489;80;20999;-71
2022/02/09 07:08:27;;;;;;;56.40;27.47;;;;;;;-0.93;100.00;98700.33;1778582;80;21163;-71
2022/02/09 07:10:55;;;;;;;44.23;19.33;;;;;;;-0.78;100.00;98693.22;1781385;80;21503;-70
2022/02/09 07:13:22;;;;;;;37.17;17.60;;;;;;;-0.63;100.00;98698.17;1753008;81;21018;-71
2022/02/09 07:15:52;;;;;;;37.13;17.00;;;;;;;-0.53;100.00;98695.08;1782671;80;21616;-71
2022/02/09 07:18:18;;;;;;;39.67;19.20;;;;;;;-0.46;100.00;98693.57;1779817;80;21058;-70
2022/02/09 07:26:11;;;;;;;40.67;20.10;;;;;;;-0.32;100.00;98698.15;1756059;80;21049;-71
2022/02/09 07:28:36;;;;;;;49.00;25.50;;;;;;;-0.24;100.00;98692.52;1780558;80;21624;-74
2022/02/09 07:31:04;;;;;;;40.00;19.73;;;;;;;-0.15;100.00;98696.67;1783513;80;21009;-71
2022/02/09 07:33:31;;;;;;;63.30;32.43;;;;;;;-0.03;100.00;98692.43;1781618;80;21029;-67
2022/02/09 07:35:58;;;;;;;93.17;46.00;;;;;;;0.08;100.00;98692.80;1758559;80;21120;-71
2022/02/09 07:38:25;;;;;;;104.83;46.40;;;;;;;0.17;100.00;98689.31;1764194;80;21560;-73
2022/02/09 07:40:56;;;;;;;90.13;46.70;;;;;;;0.26;100.00;98687.64;1784184;80;21045;-72
2022/02/09 07:43:25;;;;;;;57.93;31.13;;;;;;;0.34;100.00;98685.14;1751918;80;21045;-73
2022/02/09 07:54:00;;;;;;;50.43;26.47;;;;;;;0.73;100.00;98682.47;1723857;82;22056;-72
2022/02/09 07:56:34;;;;;;;53.30;29.13;;;;;;;0.86;100.00;98676.84;1752491;81;21077;-71
2022/02/09 07:59:01;;;;;;;80.45;41.08;;;;;;;0.94;100.00;98675.65;1730813;81;21038;-70
2022/02/09 08:01:28;;;;;;;57.80;31.67;;;;;;;1.01;100.00;98675.92;1694428;82;20970;-71
2022/02/09 08:04:00;;;;;;;89.13;47.33;;;;;;;1.12;100.00;98678.91;1675527;83;21129;-69
2022/02/09 08:06:27;;;;;;;;;;;;;;;1.20;100.00;98682.17;1683402;84;21075;-70
2022/02/09 08:09:00;;;;;;;107.53;37.67;;;;;;;1.27;100.00;98690.75;1686689;83;20104;-70
2022/02/09 08:11:42;;;;;;;32.07;13.77;;;;;;;1.39;100.00;98692.76;1701951;82;21077;-73
2022/02/09 08:32:51;;;;;;;43.93;16.97;;;;;;;1.88;100.00;99109.75;1578916;88;21508;-70
2022/02/09 08:35:12;;;;;;;82.70;27.50;;;;;;;1.97;100.00;99166.24;1594832;89;21130;-74
2022/02/09 08:37:39;;;;;;;36.17;16.83;;;;;;;2.13;100.00;99209.71;1619085;88;21114;-72
2022/02/09 08:40:09;;;;;;;18.23;8.33;;;;;;;2.23;100.00;99251.06;1614003;86;21054;-74
2022/02/09 08:42:38;;;;;;;25.17;12.80;;;;;;;2.37;100.00;99276.51;1618173;88;21058;-73
2022/02/09 08:45:13;;;;;;;19.47;9.13;;;;;;;2.45;100.00;99311.37;1582059;88;21049;-74
2022/02/09 08:47:41;;;;;;;32.37;13.13;;;;;;;2.60;100.00;99343.37;1664773;85;21602;-71
2022/02/09 08:50:09;;;;;;;23.37;10.03;;;;;;;2.53;100.00;99405.41;1681179;84;21505;-74
2022/02/09 08:52:36;;;;;;;20.13;8.77;;;;;;;2.45;100.00;99444.30;1686144;84;21085;-74
2022/02/09 08:55:04;;;;;;;17.67;8.50;;;;;;;2.41;100.00;99480.73;1650916;86;21114;-76
2022/02/09 08:57:34;;;;;;;9.40;4.77;;;;;;;2.40;100.00;99511.05;1660232;84;21080;-72
2022/02/09 09:00:17;;;;;;;8.07;3.90;;;;;;;2.41;100.00;99534.11;1663921;85;21021;-71
2022/02/09 09:02:42;;;;;;;8.70;4.50;;;;;;;2.51;100.00;99557.67;1681114;84;21108;-74
2022/02/09 09:07:40;;;;;;;17.93;9.33;;;;;;;2.71;100.00;99569.80;1625622;85;21532;-72
2022/02/09 09:10:17;;;;;;;29.57;12.03;;;;;;;2.79;100.00;99576.16;1658337;85;21000;-74
2022/02/09 09:59:18;;;;;;;18.13;8.37;;;;;;;2.51;100.00;99626.22;1566614;90;21112;-70
